sensor_id;sensor_type;location;lat;lon;timestamp;P1;durP1;ratioP1;P2;durP2;ratioP2
32196;SDS011;18697;42.770;23.400;2024-02-15T00:00:00;15.05;;;11.75;;
32196;SDS011;18697;42.770;23.400;2024-02-15T00:02:26;16.15;;;11.45;;
32196;SDS011;18697;42.770;23.400;2024-02-15T00:04:52;15.18;;;11.40;;
32196;SDS011;18697;42.770;23.400;2024-02-15T00:07:17;16.95;;;11.70;;
32196;SDS011;18697;42.770;23.400;2024-02-15T00:09:45;17.08;;;11.20;;
32196;SDS011;18697;42.770;23.400;2024-02-15T00:12:10;16.25;;;11.20;;
32196;SDS011;18697;42.770;23.400;2024-02-15T00:14:35;17.60;;;12.60;;
32196;SDS011;18697;42.770;23.400;2024-02-15T00:17:03;17.23;;;11.52;;
32196;SDS011;18697;42.770;23.400;2024-02-15T00:19:29;15.82;;;11.45;;
32196;SDS011;18697;42.770;23.400;2024-02-15T00:21:55;17.55;;;12.38;;
32196;SDS011;18697;42.770;23.400;2024-02-15T00:24:21;16.77;;;11.75;;
32196;SDS011;18697;42.770;23.400;2024-02-15T00:26:47;15.88;;;11.88;;
32196;SDS011;18697;42.770;23.400;2024-02-15T00:29:13;14.73;;;11.35;;
32196;SDS011;18697;42.770;23.400;2024-02-15T00:31:39;16.58;;;11.55;;
32196;SDS011;18697;42.770;23.400;2024-02-15T00:34:05;17.20;;;11.85;;
32196;SDS011;18697;42.770;23.400;2024-02-15T00:36:30;17.02;;;11.88;;
32196;SDS011;18697;42.770;23.400;2024-02-15T00:38:57;17.35;;;12.20;;
32196;SDS011;18697;42.770;23.400;2024-02-15T00:41:23;16.42;;;11.75;;
32196;SDS011;18697;42.770;23.400;2024-02-15T00:43:48;16.98;;;11.35;;
32196;SDS011;18697;42.770;23.400;2024-02-15T00:46:15;14.75;;;11.73;;
32196;SDS011;18697;42.770;23.400;2024-02-15T00:48:41;16.77;;;11.10;;
32196;SDS011;18697;42.770;23.400;2024-02-15T00:51:07;15.45;;;11.60;;
32196;SDS011;18697;42.770;23.400;2024-02-15T00:53:32;17.30;;;11.18;;
32196;SDS011;18697;42.770;23.400;2024-02-15T00:55:58;14.95;;;11.48;;
32196;SDS011;18697;42.770;23.400;2024-02-15T00:58:23;18.13;;;12.20;;
32196;SDS011;18697;42.770;23.400;2024-02-15T01:00:50;18.45;;;12.52;;
32196;SDS011;18697;42.770;23.400;2024-02-15T01:03:15;16.85;;;12.25;;
32196;SDS011;18697;42.770;23.400;2024-02-15T01:05:41;17.15;;;11.98;;
32196;SDS011;18697;42.770;23.400;2024-02-15T01:08:07;16.40;;;11.98;;
32196;SDS011;18697;42.770;23.400;2024-02-15T01:10:33;20.63;;;11.93;;
32196;SDS011;18697;42.770;23.400;2024-02-15T01:13:00;18.33;;;12.07;;
32196;SDS011;18697;42.770;23.400;2024-02-15T01:15:26;17.52;;;11.48;;
32196;SDS011;18697;42.770;23.400;2024-02-15T01:17:51;15.77;;;11.85;;
32196;SDS011;18697;42.770;23.400;2024-02-15T01:20:16;14.13;;;11.50;;
32196;SDS011;18697;42.770;23.400;2024-02-15T01:22:42;15.07;;;11.20;;
32196;SDS011;18697;42.770;23.400;2024-02-15T01:25:09;17.85;;;11.95;;
32196;SDS011;18697;42.770;23.400;2024-02-15T01:27:35;16.10;;;10.68;;
32196;SDS011;18697;42.770;23.400;2024-02-15T01:30:01;14.32;;;10.52;;
32196;SDS011;18697;42.770;23.400;2024-02-15T01:32:26;14.70;;;10.27;;
32196;SDS011;18697;42.770;23.400;2024-02-15T01:34:51;15.32;;;10.75;;
32196;SDS011;18697;42.770;23.400;2024-02-15T01:37:20;16.17;;;12.00;;
32196;SDS011;18697;42.770;23.400;2024-02-15T01:39:46;19.27;;;11.38;;
32196;SDS011;18697;42.770;23.400;2024-02-15T01:42:11;17.02;;;11.60;;
32196;SDS011;18697;42.770;23.400;2024-02-15T01:44:39;16.20;;;11.82;;
32196;SDS011;18697;42.770;23.400;2024-02-15T01:47:05;18.25;;;12.40;;
32196;SDS011;18697;42.770;23.400;2024-02-15T01:49:31;16.50;;;10.75;;
32196;SDS011;18697;42.770;23.400;2024-02-15T01:51:57;15.52;;;11.18;;
32196;SDS011;18697;42.770;23.400;2024-02-15T01:54:25;13.60;;;10.25;;
32196;SDS011;18697;42.770;23.400;2024-02-15T01:56:52;16.17;;;11.63;;
32196;SDS011;18697;42.770;23.400;2024-02-15T01:59:19;18.85;;;12.23;;
32196;SDS011;18697;42.770;23.400;2024-02-15T02:01:47;19.50;;;10.98;;
32196;SDS011;18697;42.770;23.400;2024-02-15T02:04:13;15.63;;;11.30;;
32196;SDS011;18697;42.770;23.400;2024-02-15T02:06:38;15.75;;;11.50;;
32196;SDS011;18697;42.770;23.400;2024-02-15T02:09:04;17.52;;;11.73;;
32196;SDS011;18697;42.770;23.400;2024-02-15T02:11:29;16.67;;;11.52;;
32196;SDS011;18697;42.770;23.400;2024-02-15T02:13:55;18.92;;;12.25;;
32196;SDS011;18697;42.770;23.400;2024-02-15T02:16:27;22.77;;;12.50;;
32196;SDS011;18697;42.770;23.400;2024-02-15T02:18:57;16.85;;;11.70;;
32196;SDS011;18697;42.770;23.400;2024-02-15T02:21:23;15.32;;;10.85;;
32196;SDS011;18697;42.770;23.400;2024-02-15T02:23:52;19.23;;;11.77;;
32196;SDS011;18697;42.770;23.400;2024-02-15T02:26:21;18.30;;;10.93;;
32196;SDS011;18697;42.770;23.400;2024-02-15T02:28:47;18.48;;;11.43;;
32196;SDS011;18697;42.770;23.400;2024-02-15T02:31:13;16.25;;;11.38;;
32196;SDS011;18697;42.770;23.400;2024-02-15T02:33:39;15.82;;;10.65;;
32196;SDS011;18697;42.770;23.400;2024-02-15T02:36:05;20.42;;;11.75;;
32196;SDS011;18697;42.770;23.400;2024-02-15T02:38:37;20.95;;;11.48;;
32196;SDS011;18697;42.770;23.400;2024-02-15T02:41:05;16.85;;;11.40;;
32196;SDS011;18697;42.770;23.400;2024-02-15T02:43:31;15.55;;;11.52;;
32196;SDS011;18697;42.770;23.400;2024-02-15T02:45:56;21.23;;;12.07;;
32196;SDS011;18697;42.770;23.400;2024-02-15T02:48:22;18.52;;;11.40;;
32196;SDS011;18697;42.770;23.400;2024-02-15T02:50:48;19.92;;;11.63;;
32196;SDS011;18697;42.770;23.400;2024-02-15T02:53:14;16.15;;;11.43;;
32196;SDS011;18697;42.770;23.400;2024-02-15T02:55:43;16.75;;;10.98;;
32196;SDS011;18697;42.770;23.400;2024-02-15T02:58:08;19.40;;;11.07;;
32196;SDS011;18697;42.770;23.400;2024-02-15T03:00:34;19.63;;;12.25;;
32196;SDS011;18697;42.770;23.400;2024-02-15T03:02:59;18.02;;;11.85;;
32196;SDS011;18697;42.770;23.400;2024-02-15T03:05:25;17.17;;;11.52;;
32196;SDS011;18697;42.770;23.400;2024-02-15T03:07:51;17.23;;;11.77;;
32196;SDS011;18697;42.770;23.400;2024-02-15T03:10:17;18.33;;;11.98;;
32196;SDS011;18697;42.770;23.400;2024-02-15T03:12:43;17.98;;;11.75;;
32196;SDS011;18697;42.770;23.400;2024-02-15T03:15:12;20.20;;;11.98;;
32196;SDS011;18697;42.770;23.400;2024-02-15T03:17:42;16.67;;;11.18;;
32196;SDS011;18697;42.770;23.400;2024-02-15T03:20:11;18.13;;;11.65;;
32196;SDS011;18697;42.770;23.400;2024-02-15T03:22:56;19.98;;;11.32;;
32196;SDS011;18697;42.770;23.400;2024-02-15T03:25:23;18.27;;;11.80;;
32196;SDS011;18697;42.770;23.400;2024-02-15T03:27:53;17.00;;;11.60;;
32196;SDS011;18697;42.770;23.400;2024-02-15T03:30:19;17.67;;;11.38;;
32196;SDS011;18697;42.770;23.400;2024-02-15T03:32:46;18.75;;;12.25;;
32196;SDS011;18697;42.770;23.400;2024-02-15T03:35:13;18.25;;;12.80;;
32196;SDS011;18697;42.770;23.400;2024-02-15T03:37:42;19.25;;;12.23;;
32196;SDS011;18697;42.770;23.400;2024-02-15T03:40:08;19.38;;;11.88;;
32196;SDS011;18697;42.770;23.400;2024-02-15T03:42:34;17.92;;;12.27;;
32196;SDS011;18697;42.770;23.400;2024-02-15T03:45:03;18.73;;;11.90;;
32196;SDS011;18697;42.770;23.400;2024-02-15T03:47:31;24.30;;;14.00;;
32196;SDS011;18697;42.770;23.400;2024-02-15T03:49:58;23.00;;;13.25;;
32196;SDS011;18697;42.770;23.400;2024-02-15T03:52:24;18.95;;;12.25;;
32196;SDS011;18697;42.770;23.400;2024-02-15T03:54:49;16.63;;;12.63;;
32196;SDS011;18697;42.770;23.400;2024-02-15T03:57:14;19.95;;;12.60;;
32196;SDS011;18697;42.770;23.400;2024-02-15T03:59:42;18.95;;;12.40;;
32196;SDS011;18697;42.770;23.400;2024-02-15T04:02:07;17.95;;;12.40;;
32196;SDS011;18697;42.770;23.400;2024-02-15T04:04:37;18.02;;;13.35;;
32196;SDS011;18697;42.770;23.400;2024-02-15T04:07:06;23.15;;;13.43;;
32196;SDS011;18697;42.770;23.400;2024-02-15T04:09:32;19.88;;;13.35;;
32196;SDS011;18697;42.770;23.400;2024-02-15T04:11:58;20.77;;;12.57;;
32196;SDS011;18697;42.770;23.400;2024-02-15T04:14:23;18.45;;;12.63;;
32196;SDS011;18697;42.770;23.400;2024-02-15T04:16:49;19.73;;;12.68;;
32196;SDS011;18697;42.770;23.400;2024-02-15T04:19:14;23.80;;;13.23;;
32196;SDS011;18697;42.770;23.400;2024-02-15T04:21:40;21.10;;;14.13;;
32196;SDS011;18697;42.770;23.400;2024-02-15T04:24:06;21.55;;;12.82;;
32196;SDS011;18697;42.770;23.400;2024-02-15T04:26:31;22.90;;;14.48;;
32196;SDS011;18697;42.770;23.400;2024-02-15T04:28:58;24.40;;;13.30;;
32196;SDS011;18697;42.770;23.400;2024-02-15T04:31:24;21.80;;;13.73;;
32196;SDS011;18697;42.770;23.400;2024-02-15T04:33:54;22.15;;;12.75;;
32196;SDS011;18697;42.770;23.400;2024-02-15T04:36:20;23.77;;;14.10;;
32196;SDS011;18697;42.770;23.400;2024-02-15T04:38:50;23.27;;;14.23;;
32196;SDS011;18697;42.770;23.400;2024-02-15T04:41:17;19.80;;;13.13;;
32196;SDS011;18697;42.770;23.400;2024-02-15T04:43:48;24.48;;;13.98;;
32196;SDS011;18697;42.770;23.400;2024-02-15T04:46:14;26.17;;;14.15;;
32196;SDS011;18697;42.770;23.400;2024-02-15T04:48:40;27.13;;;15.52;;
32196;SDS011;18697;42.770;23.400;2024-02-15T04:51:07;22.52;;;14.93;;
32196;SDS011;18697;42.770;23.400;2024-02-15T04:53:34;21.08;;;13.63;;
32196;SDS011;18697;42.770;23.400;2024-02-15T04:56:01;21.83;;;12.93;;
32196;SDS011;18697;42.770;23.400;2024-02-15T04:58:31;21.75;;;13.88;;
32196;SDS011;18697;42.770;23.400;2024-02-15T05:00:58;24.80;;;14.93;;
32196;SDS011;18697;42.770;23.400;2024-02-15T05:03:24;22.88;;;14.15;;
32196;SDS011;18697;42.770;23.400;2024-02-15T05:05:49;25.70;;;14.13;;
32196;SDS011;18697;42.770;23.400;2024-02-15T05:08:15;20.98;;;13.65;;
32196;SDS011;18697;42.770;23.400;2024-02-15T05:10:41;21.80;;;13.80;;
32196;SDS011;18697;42.770;23.400;2024-02-15T05:13:06;21.27;;;12.73;;
32196;SDS011;18697;42.770;23.400;2024-02-15T05:15:33;23.42;;;13.68;;
32196;SDS011;18697;42.770;23.400;2024-02-15T05:17:58;22.20;;;14.20;;
32196;SDS011;18697;42.770;23.400;2024-02-15T05:20:26;20.70;;;13.50;;
32196;SDS011;18697;42.770;23.400;2024-02-15T05:22:52;19.00;;;12.50;;
32196;SDS011;18697;42.770;23.400;2024-02-15T05:25:18;20.98;;;13.15;;
32196;SDS011;18697;42.770;23.400;2024-02-15T05:27:52;19.50;;;12.90;;
32196;SDS011;18697;42.770;23.400;2024-02-15T05:30:18;22.92;;;13.77;;
32196;SDS011;18697;42.770;23.400;2024-02-15T05:32:44;20.65;;;13.45;;
32196;SDS011;18697;42.770;23.400;2024-02-15T05:35:10;19.73;;;13.38;;
32196;SDS011;18697;42.770;23.400;2024-02-15T05:37:36;20.42;;;13.50;;
32196;SDS011;18697;42.770;23.400;2024-02-15T05:40:04;21.33;;;12.98;;
32196;SDS011;18697;42.770;23.400;2024-02-15T05:42:30;20.98;;;13.43;;
32196;SDS011;18697;42.770;23.400;2024-02-15T05:44:58;20.85;;;12.38;;
32196;SDS011;18697;42.770;23.400;2024-02-15T05:47:55;23.17;;;12.77;;
32196;SDS011;18697;42.770;23.400;2024-02-15T05:50:20;27.90;;;14.15;;
32196;SDS011;18697;42.770;23.400;2024-02-15T05:52:49;22.95;;;12.65;;
32196;SDS011;18697;42.770;23.400;2024-02-15T05:55:17;20.15;;;13.30;;
32196;SDS011;18697;42.770;23.400;2024-02-15T05:57:43;25.05;;;14.00;;
32196;SDS011;18697;42.770;23.400;2024-02-15T06:00:10;21.00;;;12.82;;
32196;SDS011;18697;42.770;23.400;2024-02-15T06:02:36;23.50;;;12.82;;
32196;SDS011;18697;42.770;23.400;2024-02-15T06:05:01;23.27;;;14.43;;
32196;SDS011;18697;42.770;23.400;2024-02-15T06:07:29;18.38;;;12.82;;
32196;SDS011;18697;42.770;23.400;2024-02-15T06:09:56;22.85;;;13.80;;
32196;SDS011;18697;42.770;23.400;2024-02-15T06:12:22;21.02;;;13.15;;
32196;SDS011;18697;42.770;23.400;2024-02-15T06:14:47;21.92;;;13.05;;
32196;SDS011;18697;42.770;23.400;2024-02-15T06:17:13;23.30;;;14.73;;
32196;SDS011;18697;42.770;23.400;2024-02-15T06:19:39;20.73;;;12.90;;
32196;SDS011;18697;42.770;23.400;2024-02-15T06:22:04;25.27;;;14.68;;
32196;SDS011;18697;42.770;23.400;2024-02-15T06:24:30;21.15;;;13.60;;
32196;SDS011;18697;42.770;23.400;2024-02-15T06:26:55;21.88;;;13.23;;
32196;SDS011;18697;42.770;23.400;2024-02-15T06:29:25;24.40;;;14.02;;
32196;SDS011;18697;42.770;23.400;2024-02-15T06:32:09;23.52;;;14.25;;
32196;SDS011;18697;42.770;23.400;2024-02-15T06:34:53;20.65;;;12.35;;
32196;SDS011;18697;42.770;23.400;2024-02-15T06:37:40;28.80;;;16.10;;
32196;SDS011;18697;42.770;23.400;2024-02-15T06:40:24;22.63;;;14.27;;
32196;SDS011;18697;42.770;23.400;2024-02-15T06:42:49;18.77;;;12.75;;
32196;SDS011;18697;42.770;23.400;2024-02-15T06:45:15;20.75;;;12.48;;
32196;SDS011;18697;42.770;23.400;2024-02-15T06:47:44;21.63;;;12.20;;
32196;SDS011;18697;42.770;23.400;2024-02-15T06:50:11;18.83;;;12.57;;
32196;SDS011;18697;42.770;23.400;2024-02-15T06:52:37;16.40;;;11.65;;
32196;SDS011;18697;42.770;23.400;2024-02-15T06:55:03;20.48;;;11.80;;
32196;SDS011;18697;42.770;23.400;2024-02-15T06:57:32;19.30;;;12.45;;
32196;SDS011;18697;42.770;23.400;2024-02-15T07:00:00;20.67;;;12.85;;
32196;SDS011;18697;42.770;23.400;2024-02-15T07:02:27;17.23;;;11.98;;
32196;SDS011;18697;42.770;23.400;2024-02-15T07:04:54;18.80;;;12.18;;
32196;SDS011;18697;42.770;23.400;2024-02-15T07:07:19;15.23;;;11.02;;
32196;SDS011;18697;42.770;23.400;2024-02-15T07:09:44;20.25;;;10.98;;
32196;SDS011;18697;42.770;23.400;2024-02-15T07:12:10;18.63;;;11.82;;
32196;SDS011;18697;42.770;23.400;2024-02-15T07:14:36;19.90;;;11.38;;
32196;SDS011;18697;42.770;23.400;2024-02-15T07:17:01;18.23;;;10.80;;
32196;SDS011;18697;42.770;23.400;2024-02-15T07:19:27;15.63;;;10.57;;
32196;SDS011;18697;42.770;23.400;2024-02-15T07:21:52;16.98;;;11.30;;
32196;SDS011;18697;42.770;23.400;2024-02-15T07:24:17;15.75;;;11.18;;
32196;SDS011;18697;42.770;23.400;2024-02-15T07:26:44;18.52;;;11.48;;
32196;SDS011;18697;42.770;23.400;2024-02-15T07:29:09;19.13;;;11.43;;
32196;SDS011;18697;42.770;23.400;2024-02-15T07:31:36;20.40;;;11.68;;
32196;SDS011;18697;42.770;23.400;2024-02-15T07:34:01;15.60;;;10.70;;
32196;SDS011;18697;42.770;23.400;2024-02-15T07:36:28;19.45;;;10.63;;
32196;SDS011;18697;42.770;23.400;2024-02-15T07:38:53;18.58;;;11.57;;
32196;SDS011;18697;42.770;23.400;2024-02-15T07:41:22;16.55;;;11.32;;
32196;SDS011;18697;42.770;23.400;2024-02-15T07:43:49;16.30;;;10.93;;
32196;SDS011;18697;42.770;23.400;2024-02-15T07:46:15;16.20;;;10.63;;
32196;SDS011;18697;42.770;23.400;2024-02-15T07:48:44;17.50;;;11.63;;
32196;SDS011;18697;42.770;23.400;2024-02-15T07:51:13;20.45;;;11.68;;
32196;SDS011;18697;42.770;23.400;2024-02-15T07:53:45;14.43;;;9.73;;
32196;SDS011;18697;42.770;23.400;2024-02-15T07:56:11;16.50;;;9.93;;
32196;SDS011;18697;42.770;23.400;2024-02-15T07:58:38;13.75;;;9.55;;
32196;SDS011;18697;42.770;23.400;2024-02-15T08:01:07;14.10;;;9.95;;
32196;SDS011;18697;42.770;23.400;2024-02-15T08:03:36;19.98;;;9.63;;
32196;SDS011;18697;42.770;23.400;2024-02-15T08:06:02;19.23;;;10.73;;
32196;SDS011;18697;42.770;23.400;2024-02-15T08:08:31;15.75;;;10.00;;
32196;SDS011;18697;42.770;23.400;2024-02-15T08:10:59;12.52;;;9.60;;
32196;SDS011;18697;42.770;23.400;2024-02-15T08:13:26;15.23;;;10.18;;
32196;SDS011;18697;42.770;23.400;2024-02-15T08:15:54;26.08;;;12.10;;
32196;SDS011;18697;42.770;23.400;2024-02-15T08:18:20;15.40;;;10.43;;
32196;SDS011;18697;42.770;23.400;2024-02-15T08:20:45;16.65;;;10.13;;
32196;SDS011;18697;42.770;23.400;2024-02-15T08:23:10;16.58;;;10.23;;
32196;SDS011;18697;42.770;23.400;2024-02-15T08:25:38;16.40;;;10.40;;
32196;SDS011;18697;42.770;23.400;2024-02-15T08:28:04;16.63;;;10.55;;
32196;SDS011;18697;42.770;23.400;2024-02-15T08:30:30;19.00;;;11.05;;
32196;SDS011;18697;42.770;23.400;2024-02-15T08:32:55;16.70;;;10.18;;
32196;SDS011;18697;42.770;23.400;2024-02-15T08:35:21;16.48;;;10.55;;
32196;SDS011;18697;42.770;23.400;2024-02-15T08:37:46;15.18;;;9.73;;
32196;SDS011;18697;42.770;23.400;2024-02-15T08:40:13;15.98;;;9.60;;
32196;SDS011;18697;42.770;23.400;2024-02-15T08:42:43;14.52;;;10.35;;
32196;SDS011;18697;42.770;23.400;2024-02-15T08:45:09;21.38;;;9.63;;
32196;SDS011;18697;42.770;23.400;2024-02-15T08:47:38;12.60;;;8.93;;
32196;SDS011;18697;42.770;23.400;2024-02-15T08:50:04;13.30;;;9.30;;
32196;SDS011;18697;42.770;23.400;2024-02-15T08:52:31;12.82;;;9.77;;
32196;SDS011;18697;42.770;23.400;2024-02-15T08:54:56;11.70;;;8.18;;
32196;SDS011;18697;42.770;23.400;2024-02-15T08:57:24;15.30;;;9.43;;
32196;SDS011;18697;42.770;23.400;2024-02-15T08:59:49;13.13;;;9.27;;
32196;SDS011;18697;42.770;23.400;2024-02-15T09:02:16;17.13;;;9.77;;
32196;SDS011;18697;42.770;23.400;2024-02-15T09:04:42;14.70;;;9.45;;
32196;SDS011;18697;42.770;23.400;2024-02-15T09:07:08;13.32;;;8.88;;
32196;SDS011;18697;42.770;23.400;2024-02-15T09:09:34;17.20;;;9.82;;
32196;SDS011;18697;42.770;23.400;2024-02-15T09:12:02;17.75;;;11.90;;
32196;SDS011;18697;42.770;23.400;2024-02-15T09:14:34;16.25;;;9.98;;
32196;SDS011;18697;42.770;23.400;2024-02-15T09:17:01;12.23;;;8.38;;
32196;SDS011;18697;42.770;23.400;2024-02-15T09:19:32;11.93;;;7.82;;
32196;SDS011;18697;42.770;23.400;2024-02-15T09:21:57;11.27;;;8.23;;
32196;SDS011;18697;42.770;23.400;2024-02-15T09:24:23;13.40;;;9.05;;
32196;SDS011;18697;42.770;23.400;2024-02-15T09:26:50;11.75;;;8.52;;
32196;SDS011;18697;42.770;23.400;2024-02-15T09:29:16;11.35;;;8.35;;
32196;SDS011;18697;42.770;23.400;2024-02-15T09:31:41;16.00;;;8.68;;
32196;SDS011;18697;42.770;23.400;2024-02-15T09:36:35;11.82;;;8.10;;
32196;SDS011;18697;42.770;23.400;2024-02-15T09:39:03;12.77;;;7.90;;
32196;SDS011;18697;42.770;23.400;2024-02-15T09:41:29;13.10;;;8.40;;
32196;SDS011;18697;42.770;23.400;2024-02-15T09:46:20;11.18;;;7.85;;
32196;SDS011;18697;42.770;23.400;2024-02-15T09:48:50;11.95;;;8.32;;
32196;SDS011;18697;42.770;23.400;2024-02-15T09:51:20;10.75;;;7.65;;
32196;SDS011;18697;42.770;23.400;2024-02-15T09:53:46;10.73;;;7.43;;
32196;SDS011;18697;42.770;23.400;2024-02-15T09:56:12;9.27;;;7.80;;
32196;SDS011;18697;42.770;23.400;2024-02-15T09:58:40;11.55;;;7.18;;
32196;SDS011;18697;42.770;23.400;2024-02-15T10:01:06;9.63;;;6.70;;
32196;SDS011;18697;42.770;23.400;2024-02-15T10:03:38;8.70;;;6.90;;
32196;SDS011;18697;42.770;23.400;2024-02-15T10:06:06;12.25;;;7.35;;
32196;SDS011;18697;42.770;23.400;2024-02-15T10:08:32;9.80;;;6.93;;
32196;SDS011;18697;42.770;23.400;2024-02-15T10:16:19;9.47;;;6.70;;
32196;SDS011;18697;42.770;23.400;2024-02-15T10:18:50;9.70;;;7.15;;
32196;SDS011;18697;42.770;23.400;2024-02-15T10:21:28;11.93;;;7.18;;
32196;SDS011;18697;42.770;23.400;2024-02-15T10:24:07;11.30;;;7.60;;
32196;SDS011;18697;42.770;23.400;2024-02-15T10:26:34;9.13;;;7.47;;
32196;SDS011;18697;42.770;23.400;2024-02-15T10:29:10;13.60;;;7.78;;
32196;SDS011;18697;42.770;23.400;2024-02-15T10:31:37;11.50;;;7.95;;
32196;SDS011;18697;42.770;23.400;2024-02-15T10:34:06;12.88;;;6.47;;
32196;SDS011;18697;42.770;23.400;2024-02-15T10:36:32;8.88;;;6.63;;
32196;SDS011;18697;42.770;23.400;2024-02-15T10:39:12;11.98;;;7.75;;
32196;SDS011;18697;42.770;23.400;2024-02-15T10:41:49;10.00;;;7.40;;
32196;SDS011;18697;42.770;23.400;2024-02-15T10:44:20;9.00;;;6.82;;
32196;SDS011;18697;42.770;23.400;2024-02-15T10:46:47;18.13;;;10.18;;
32196;SDS011;18697;42.770;23.400;2024-02-15T10:51:48;27.10;;;14.73;;
32196;SDS011;18697;42.770;23.400;2024-02-15T10:54:19;16.95;;;11.15;;
32196;SDS011;18697;42.770;23.400;2024-02-15T10:57:09;9.75;;;7.60;;
32196;SDS011;18697;42.770;23.400;2024-02-15T10:59:37;9.70;;;7.45;;
32196;SDS011;18697;42.770;23.400;2024-02-15T11:04:53;10.07;;;6.90;;
32196;SDS011;18697;42.770;23.400;2024-02-15T11:07:25;12.73;;;7.57;;
32196;SDS011;18697;42.770;23.400;2024-02-15T11:09:54;11.55;;;7.85;;
32196;SDS011;18697;42.770;23.400;2024-02-15T11:12:26;13.80;;;7.50;;
32196;SDS011;18697;42.770;23.400;2024-02-15T11:14:52;14.45;;;7.28;;
32196;SDS011;18697;42.770;23.400;2024-02-15T11:20:05;9.93;;;6.80;;
32196;SDS011;18697;42.770;23.400;2024-02-15T11:22:35;10.80;;;7.43;;
32196;SDS011;18697;42.770;23.400;2024-02-15T11:25:04;12.77;;;7.65;;
32196;SDS011;18697;42.770;23.400;2024-02-15T11:27:34;10.43;;;7.18;;
32196;SDS011;18697;42.770;23.400;2024-02-15T11:30:02;10.05;;;7.22;;
32196;SDS011;18697;42.770;23.400;2024-02-15T11:35:03;8.90;;;6.57;;
32196;SDS011;18697;42.770;23.400;2024-02-15T11:43:06;7.28;;;5.85;;
32196;SDS011;18697;42.770;23.400;2024-02-15T11:45:33;10.45;;;7.03;;
32196;SDS011;18697;42.770;23.400;2024-02-15T11:48:03;8.00;;;5.90;;
32196;SDS011;18697;42.770;23.400;2024-02-15T11:50:36;6.32;;;5.60;;
32196;SDS011;18697;42.770;23.400;2024-02-15T11:53:03;7.90;;;6.10;;
32196;SDS011;18697;42.770;23.400;2024-02-15T11:55:34;12.85;;;7.03;;
32196;SDS011;18697;42.770;23.400;2024-02-15T11:58:00;8.52;;;6.28;;
32196;SDS011;18697;42.770;23.400;2024-02-15T12:00:41;10.18;;;5.90;;
32196;SDS011;18697;42.770;23.400;2024-02-15T12:03:25;8.40;;;6.03;;
32196;SDS011;18697;42.770;23.400;2024-02-15T12:06:09;8.13;;;5.95;;
32196;SDS011;18697;42.770;23.400;2024-02-15T12:08:54;10.48;;;6.60;;
32196;SDS011;18697;42.770;23.400;2024-02-15T12:11:38;7.88;;;5.93;;
32196;SDS011;18697;42.770;23.400;2024-02-15T12:14:25;8.50;;;6.00;;
32196;SDS011;18697;42.770;23.400;2024-02-15T12:17:10;10.35;;;5.97;;
32196;SDS011;18697;42.770;23.400;2024-02-15T12:19:56;8.57;;;6.13;;
32196;SDS011;18697;42.770;23.400;2024-02-15T12:22:28;12.07;;;6.65;;
32196;SDS011;18697;42.770;23.400;2024-02-15T12:25:03;10.23;;;6.57;;
32196;SDS011;18697;42.770;23.400;2024-02-15T12:27:45;8.18;;;6.22;;
32196;SDS011;18697;42.770;23.400;2024-02-15T12:30:18;7.30;;;5.80;;
32196;SDS011;18697;42.770;23.400;2024-02-15T12:32:46;9.98;;;6.75;;
32196;SDS011;18697;42.770;23.400;2024-02-15T12:35:15;18.50;;;11.73;;
32196;SDS011;18697;42.770;23.400;2024-02-15T12:37:49;12.55;;;9.07;;
32196;SDS011;18697;42.770;23.400;2024-02-15T12:40:30;9.00;;;6.13;;
32196;SDS011;18697;42.770;23.400;2024-02-15T12:42:57;18.40;;;9.35;;
32196;SDS011;18697;42.770;23.400;2024-02-15T12:45:25;9.35;;;6.75;;
32196;SDS011;18697;42.770;23.400;2024-02-15T12:47:55;9.52;;;6.80;;
32196;SDS011;18697;42.770;23.400;2024-02-15T12:50:21;6.60;;;5.70;;
32196;SDS011;18697;42.770;23.400;2024-02-15T12:52:51;8.63;;;7.13;;
32196;SDS011;18697;42.770;23.400;2024-02-15T12:57:48;10.90;;;7.25;;
32196;SDS011;18697;42.770;23.400;2024-02-15T13:00:27;11.90;;;7.95;;
32196;SDS011;18697;42.770;23.400;2024-02-15T13:02:57;11.30;;;7.10;;
32196;SDS011;18697;42.770;23.400;2024-02-15T13:05:25;9.73;;;6.90;;
32196;SDS011;18697;42.770;23.400;2024-02-15T13:07:51;12.75;;;8.02;;
32196;SDS011;18697;42.770;23.400;2024-02-15T13:10:20;8.77;;;6.25;;
32196;SDS011;18697;42.770;23.400;2024-02-15T13:12:46;11.80;;;8.00;;
32196;SDS011;18697;42.770;23.400;2024-02-15T13:15:13;9.10;;;6.55;;
32196;SDS011;18697;42.770;23.400;2024-02-15T13:17:46;9.70;;;6.45;;
32196;SDS011;18697;42.770;23.400;2024-02-15T13:20:21;11.98;;;6.97;;
32196;SDS011;18697;42.770;23.400;2024-02-15T13:23:03;10.57;;;7.50;;
32196;SDS011;18697;42.770;23.400;2024-02-15T13:25:47;15.88;;;8.77;;
32196;SDS011;18697;42.770;23.400;2024-02-15T13:28:14;12.68;;;7.82;;
32196;SDS011;18697;42.770;23.400;2024-02-15T13:30:39;47.83;;;22.92;;
32196;SDS011;18697;42.770;23.400;2024-02-15T13:33:06;51.30;;;23.55;;
32196;SDS011;18697;42.770;23.400;2024-02-15T13:35:32;15.40;;;8.60;;
32196;SDS011;18697;42.770;23.400;2024-02-15T13:37:57;35.42;;;16.17;;
32196;SDS011;18697;42.770;23.400;2024-02-15T13:42:56;34.88;;;18.65;;
32196;SDS011;18697;42.770;23.400;2024-02-15T13:45:30;27.58;;;14.48;;
32196;SDS011;18697;42.770;23.400;2024-02-15T13:48:02;10.40;;;6.93;;
32196;SDS011;18697;42.770;23.400;2024-02-15T13:50:29;19.80;;;11.80;;
32196;SDS011;18697;42.770;23.400;2024-02-15T13:52:56;11.20;;;7.80;;
32196;SDS011;18697;42.770;23.400;2024-02-15T13:55:23;22.45;;;12.80;;
32196;SDS011;18697;42.770;23.400;2024-02-15T13:57:50;10.57;;;5.97;;
32196;SDS011;18697;42.770;23.400;2024-02-15T14:00:17;14.25;;;8.43;;
32196;SDS011;18697;42.770;23.400;2024-02-15T14:02:55;11.48;;;7.70;;
32196;SDS011;18697;42.770;23.400;2024-02-15T14:05:22;27.65;;;12.43;;
32196;SDS011;18697;42.770;23.400;2024-02-15T14:07:50;7.32;;;4.95;;
32196;SDS011;18697;42.770;23.400;2024-02-15T14:10:20;8.65;;;5.15;;
32196;SDS011;18697;42.770;23.400;2024-02-15T14:12:46;25.58;;;12.45;;
32196;SDS011;18697;42.770;23.400;2024-02-15T14:15:13;20.58;;;10.75;;
32196;SDS011;18697;42.770;23.400;2024-02-15T14:17:40;27.33;;;14.60;;
32196;SDS011;18697;42.770;23.400;2024-02-15T14:20:06;15.38;;;9.55;;
32196;SDS011;18697;42.770;23.400;2024-02-15T14:22:38;12.65;;;7.68;;
32196;SDS011;18697;42.770;23.400;2024-02-15T14:25:22;9.32;;;7.45;;
32196;SDS011;18697;42.770;23.400;2024-02-15T14:27:48;36.33;;;21.20;;
32196;SDS011;18697;42.770;23.400;2024-02-15T14:30:14;23.05;;;14.60;;
32196;SDS011;18697;42.770;23.400;2024-02-15T14:32:58;15.13;;;11.05;;
32196;SDS011;18697;42.770;23.400;2024-02-15T14:37:55;8.80;;;5.72;;
32196;SDS011;18697;42.770;23.400;2024-02-15T14:40:27;9.23;;;5.65;;
32196;SDS011;18697;42.770;23.400;2024-02-15T14:42:52;8.48;;;5.60;;
32196;SDS011;18697;42.770;23.400;2024-02-15T14:45:18;11.75;;;7.95;;
32196;SDS011;18697;42.770;23.400;2024-02-15T14:47:43;11.45;;;7.45;;
32196;SDS011;18697;42.770;23.400;2024-02-15T14:50:09;14.77;;;8.88;;
32196;SDS011;18697;42.770;23.400;2024-02-15T14:52:37;11.18;;;7.50;;
32196;SDS011;18697;42.770;23.400;2024-02-15T14:55:03;12.82;;;8.13;;